Sparta, New Jersey
Current Conditions -  °F | °C
As of 4:53 PM on Thursday 18 Dec 2014 (Local Time) from KFWN Reporting Station
Overcast Overcast  
Wind Chill: 37°   Ceiling: 2700
Heat Index: 37°   Visibility: 10mi
Dew Point: 26°   Wind: 3mph
Humidity: 65%   Direction: 320°NW
Pressure: 29.98"   Gusts: NA
Location:  41.03°N, 74.64°W
Report Text: KFWN 182153Z AUTO 32003KT 10SM OVC027 03/M03 A2998 RMK AO2 SLP155 T00281033
Loading
Personal Weather Stations






























Interactive Weather Map New forecast layout! Learn more

10-Day Weather Forecast

Advertisements
Track Severe Weather on mobile